Time;durP1;ratioP1;P1;durP2;ratioP2;P2;SDS_P1;SDS_P2;PMS_P1;PMS_P2;Temp;Humidity;BMP_temperature;BMP_pressure;BME280_temperature;BME280_humidity;BME280_pressure;Samples;Min_cycle;Max_cycle;Signal;HPM_P1;HPM_P2
2022/09/13 00:02:39;;;;;;;9.63;5.47;;;;;;;10.82;95.02;99168.97;8412675;28;20151;-80
2022/09/13 00:06:40;;;;;;;11.48;6.15;;;;;;;10.81;95.16;99176.28;8424927;28;20060;-79
2022/09/13 00:10:42;;;;;;;13.50;6.53;;;;;;;10.81;95.20;99160.06;8409884;28;20105;-80
2022/09/13 00:14:43;;;;;;;10.63;6.45;;;;;;;10.79;95.13;99161.47;8409238;28;20052;-80
2022/09/13 00:18:44;;;;;;;8.80;6.25;;;;;;;10.78;95.36;99165.31;8407737;28;20037;-80
2022/09/13 00:22:45;;;;;;;13.73;7.07;;;;;;;10.76;95.28;99156.72;8422224;28;20094;-80
2022/09/13 00:26:46;;;;;;;10.85;7.25;;;;;;;10.73;95.37;99155.44;8414964;28;20041;-79
2022/09/13 00:30:47;;;;;;;12.57;7.88;;;;;;;10.72;95.49;99144.94;8410426;28;20413;-80
2022/09/13 00:34:50;;;;;;;11.40;7.20;;;;;;;10.71;95.45;99148.72;8416824;28;20059;-79
2022/09/13 00:38:51;;;;;;;14.50;9.10;;;;;;;10.70;95.51;99133.63;8406454;28;20044;-79
2022/09/13 00:42:52;;;;;;;13.00;8.50;;;;;;;10.71;95.61;99132.53;8408183;28;20040;-80
2022/09/13 00:46:53;;;;;;;15.55;9.90;;;;;;;10.70;95.92;99125.53;8406645;28;20067;-80
2022/09/13 00:50:54;;;;;;;17.00;10.05;;;;;;;10.69;95.81;99124.72;8405252;28;20055;-79
2022/09/13 00:55:02;;;;;;;19.15;11.57;;;;;;;10.70;95.90;99122.81;8413214;28;20416;-80
2022/09/13 00:59:12;;;;;;;20.13;11.00;;;;;;;10.69;95.92;99129.31;8408079;28;20490;-79
2022/09/13 01:08:36;;;;;;;19.70;12.77;;;;;;;10.69;95.88;99118.53;8410737;28;20066;-80
2022/09/13 01:12:47;;;;;;;20.50;12.55;;;;;;;10.67;95.81;99121.56;8417619;28;20053;-80
2022/09/13 01:16:48;;;;;;;22.02;13.68;;;;;;;10.66;96.00;99119.94;8387273;28;20127;-80
2022/09/13 01:20:51;;;;;;;20.75;13.75;;;;;;;10.63;96.26;99111.69;8384341;28;20452;-79
2022/09/13 01:25:27;;;;;;;29.98;14.02;;;;;;;10.63;96.57;99114.38;8377921;28;20082;-79
2022/09/13 01:29:46;;;;;;;21.80;14.80;;;;;;;10.62;96.50;99110.06;8373516;28;20755;-79
2022/09/13 01:34:12;;;;;;;22.77;14.93;;;;;;;10.62;96.62;99107.38;8379992;28;20053;-79
2022/09/13 01:38:16;;;;;;;24.33;15.27;;;;;;;10.63;96.55;99108.97;8332388;28;20423;-79
2022/09/13 01:42:47;;;;;;;23.35;14.63;;;;;;;10.61;96.80;99108.47;8336314;28;20045;-80
2022/09/13 01:46:54;;;;;;;29.08;15.05;;;;;;;10.58;96.64;99107.97;8338176;28;20593;-79
2022/09/13 01:51:04;;;;;;;22.08;13.63;;;;;;;10.55;96.83;99097.81;8345286;28;20128;-80
2022/09/13 01:55:10;;;;;;;22.13;13.63;;;;;;;10.51;97.01;99102.22;8340544;28;20056;-80
2022/09/13 01:59:20;;;;;;;18.55;13.40;;;;;;;10.48;97.07;99097.44;8328503;28;20132;-80
2022/09/13 02:03:33;;;;;;;20.95;14.00;;;;;;;10.46;97.15;99088.84;8296104;28;20131;-80
2022/09/13 02:07:40;;;;;;;24.48;14.68;;;;;;;10.41;97.13;99075.50;8338557;28;20560;-80
2022/09/13 02:11:44;;;;;;;22.90;14.63;;;;;;;10.38;97.19;99070.69;8375084;28;20059;-80
2022/09/13 02:15:52;;;;;;;20.75;14.60;;;;;;;10.36;97.24;99067.53;8370856;28;20041;-80
2022/09/13 02:19:56;;;;;;;25.63;15.30;;;;;;;10.36;97.09;99056.72;8380888;28;20086;-81
2022/09/13 02:24:10;;;;;;;28.90;14.85;;;;;;;10.32;97.23;99050.31;8382576;28;20067;-82
2022/09/13 02:28:12;;;;;;;22.85;15.07;;;;;;;10.29;97.18;99050.16;8391744;28;20052;-82
2022/09/13 02:32:45;;;;;;;28.20;17.30;;;;;;;10.28;97.32;99049.34;8384267;28;20044;-82
2022/09/13 02:36:48;;;;;;;26.98;16.42;;;;;;;10.28;97.26;99043.94;8293532;28;20088;-82
2022/09/13 02:40:58;;;;;;;24.63;14.02;;;;;;;10.29;97.33;99045.56;8292417;28;20050;-82
2022/09/13 02:44:59;;;;;;;23.40;13.95;;;;;;;10.28;97.03;99038.56;8267128;28;20069;-82
2022/09/13 02:49:02;;;;;;;22.23;13.75;;;;;;;10.24;97.28;99036.78;8276864;28;20101;-82
2022/09/13 02:53:16;;;;;;;19.65;13.25;;;;;;;10.20;97.37;99031.22;8293624;28;20050;-82
2022/09/13 02:57:30;;;;;;;22.17;13.10;;;;;;;10.19;97.71;99024.22;8289973;28;20099;-82
2022/09/13 03:01:34;;;;;;;17.17;12.30;;;;;;;10.18;97.87;99017.22;8292493;28;20111;-82
2022/09/13 03:05:35;;;;;;;20.25;14.00;;;;;;;10.18;97.85;99006.41;8296069;28;20041;-82
2022/09/13 03:09:36;;;;;;;23.02;13.07;;;;;;;10.17;98.08;99004.81;8275069;28;20053;-82
2022/09/13 03:13:55;;;;;;;24.85;14.05;;;;;;;10.19;98.19;98999.94;8360004;28;20043;-82
2022/09/13 03:18:44;;;;;;;20.17;14.25;;;;;;;10.25;98.37;98996.00;8398332;28;20519;-82
2022/09/13 03:23:17;;;;;;;24.20;13.25;;;;;;;10.27;98.18;98993.78;8334668;28;20557;-82
2022/09/13 03:27:33;;;;;;;24.02;13.85;;;;;;;10.26;98.25;98980.59;8277482;28;20137;-83
2022/09/13 03:31:40;;;;;;;21.30;13.55;;;;;;;10.23;98.52;98982.00;8261728;28;20054;-85
2022/09/13 03:35:54;;;;;;;26.17;15.10;;;;;;;10.20;98.66;98971.03;8259859;28;20054;-84
2022/09/13 03:40:12;;;;;;;19.35;13.85;;;;;;;10.19;99.01;98959.44;8259002;28;20132;-84
2022/09/13 03:44:16;;;;;;;20.65;13.02;;;;;;;10.21;98.83;98957.22;8226406;28;20054;-84
2022/09/13 03:48:17;;;;;;;23.35;13.88;;;;;;;10.25;98.73;98960.91;8247026;28;20054;-86
2022/09/13 03:52:18;;;;;;;25.73;17.60;;;;;;;10.35;98.93;98963.34;8259752;28;20058;-82
2022/09/13 03:56:19;;;;;;;20.25;14.85;;;;;;;10.40;99.44;98971.31;8271932;28;20050;-84
2022/09/13 04:00:21;;;;;;;28.08;13.02;;;;;;;10.40;99.79;98970.50;8326140;28;20045;-87
2022/09/13 04:04:21;;;;;;;18.23;12.18;;;;;;;10.37;100.00;98966.50;8346217;28;20054;-81
2022/09/13 04:08:22;;;;;;;22.05;12.85;;;;;;;10.35;100.00;98968.75;8408434;28;20412;-81
2022/09/13 04:12:24;;;;;;;16.05;11.70;;;;;;;10.35;100.00;98963.34;8412327;28;20129;-86
2022/09/13 04:16:25;;;;;;;14.38;10.23;;;;;;;10.34;100.00;98959.03;8385703;28;20489;-82
2022/09/13 04:20:25;;;;;;;14.15;9.77;;;;;;;10.33;100.00;98962.84;8414049;28;20079;-82
2022/09/13 04:24:31;;;;;;;12.35;9.48;;;;;;;10.30;100.00;98955.38;8361830;28;20105;-83
2022/09/13 04:28:32;;;;;;;15.38;10.38;;;;;;;10.24;100.00;98962.00;8396262;28;20052;-83
2022/09/13 04:32:34;;;;;;;14.48;10.70;;;;;;;10.22;100.00;98958.00;8367622;28;20079;-84
2022/09/13 04:36:34;;;;;;;15.88;9.55;;;;;;;10.21;100.00;98957.22;8373645;28;20045;-86
2022/09/13 04:40:36;;;;;;;16.83;9.40;;;;;;;10.20;100.00;98958.34;8392848;28;20048;-86
2022/09/13 04:44:37;;;;;;;16.02;9.82;;;;;;;10.18;100.00;98957.84;8406818;28;20036;-88
2022/09/13 04:48:39;;;;;;;15.15;10.98;;;;;;;10.16;100.00;98954.66;8406737;28;20056;-85
2022/09/13 04:52:40;;;;;;;14.40;10.93;;;;;;;10.19;100.00;98954.06;8396016;28;20207;-86
2022/09/13 04:56:43;;;;;;;19.17;11.60;;;;;;;10.21;100.00;98946.41;8391346;28;20049;-85
2022/09/13 05:00:44;;;;;;;17.13;11.63;;;;;;;10.21;100.00;98951.00;8391053;28;20485;-86
2022/09/13 05:04:45;;;;;;;17.70;11.65;;;;;;;10.23;100.00;98960.41;8415771;28;20052;-84
2022/09/13 05:08:54;;;;;;;17.63;11.00;;;;;;;10.24;100.00;98951.22;8419270;28;20390;-83
2022/09/13 05:12:55;;;;;;;16.65;12.52;;;;;;;10.25;100.00;98949.31;8433257;28;20062;-88
2022/09/13 05:16:56;;;;;;;16.70;11.40;;;;;;;10.30;100.00;98944.59;8433318;28;20048;-82
2022/09/13 05:20:59;;;;;;;19.30;11.43;;;;;;;10.33;100.00;98949.34;8428380;28;20041;-87
2022/09/13 05:25:00;;;;;;;19.27;11.45;;;;;;;10.32;100.00;98953.16;8412800;28;20037;-85
2022/09/13 05:29:01;;;;;;;17.42;10.95;;;;;;;10.36;100.00;98954.13;8393633;28;20052;-84
2022/09/13 05:33:03;;;;;;;17.63;11.05;;;;;;;10.41;100.00;98956.72;8432593;28;20048;-85
2022/09/13 05:37:04;;;;;;;17.92;11.07;;;;;;;10.49;100.00;98942.44;8430382;28;20056;-83
2022/09/13 05:41:05;;;;;;;16.33;11.80;;;;;;;10.59;100.00;98947.56;8430701;28;20044;-84
2022/09/13 05:45:07;;;;;;;18.20;11.38;;;;;;;10.69;100.00;98940.25;8417840;28;20059;-84
2022/09/13 05:49:08;;;;;;;22.13;11.05;;;;;;;10.74;100.00;98953.63;8432017;28;20058;-83
2022/09/13 05:53:09;;;;;;;15.32;11.20;;;;;;;10.75;100.00;98939.03;8430919;28;20070;-87
2022/09/13 05:57:10;;;;;;;17.55;11.55;;;;;;;10.74;100.00;98932.00;8405199;28;20668;-88
2022/09/13 06:01:12;;;;;;;18.63;11.70;;;;;;;10.76;100.00;98929.81;8417459;28;20056;-86
2022/09/13 06:05:13;;;;;;;17.98;12.15;;;;;;;10.81;100.00;98926.97;8431705;28;20048;-84
2022/09/13 06:09:14;;;;;;;15.27;11.63;;;;;;;10.86;100.00;98913.31;8431713;28;20079;-85
2022/09/13 06:13:15;;;;;;;21.27;13.13;;;;;;;10.89;100.00;98918.09;8418694;28;20057;-83
2022/09/13 06:17:16;;;;;;;18.00;12.48;;;;;;;10.95;100.00;98916.81;8428304;28;20058;-86
2022/09/13 06:21:20;;;;;;;15.88;11.88;;;;;;;11.01;100.00;98899.34;8423614;28;20049;-86
2022/09/13 06:25:22;;;;;;;19.88;12.55;;;;;;;11.03;100.00;98897.13;8411316;28;20042;-87
2022/09/13 06:29:23;;;;;;;20.27;13.00;;;;;;;11.08;100.00;98894.28;8430603;28;20485;-88
2022/09/13 06:33:24;;;;;;;19.17;13.00;;;;;;;11.17;100.00;98886.97;8430572;28;20052;-84
2022/09/13 06:37:25;;;;;;;18.80;13.02;;;;;;;11.25;100.00;98888.88;8430393;28;20416;-84
2022/09/13 06:41:27;;;;;;;19.90;12.90;;;;;;;11.37;100.00;98886.31;8410488;28;20049;-83
2022/09/13 06:45:28;;;;;;;19.70;12.57;;;;;;;11.46;100.00;98882.81;8421781;28;20388;-83
2022/09/13 06:49:30;;;;;;;19.27;13.20;;;;;;;11.54;100.00;98868.50;8430052;28;20052;-82
2022/09/13 06:53:32;;;;;;;28.00;13.65;;;;;;;11.63;100.00;98882.81;8415746;28;20056;-83
2022/09/13 06:57:36;;;;;;;19.48;12.98;;;;;;;11.75;100.00;98885.66;8428667;28;20134;-85
2022/09/13 07:01:45;;;;;;;20.83;12.70;;;;;;;11.91;100.00;98889.44;8415215;28;20066;-83
2022/09/13 07:05:46;;;;;;;;;;;;;;;12.04;100.00;98883.06;8424369;28;20045;-83
2022/09/13 07:09:47;;;;;;;17.67;12.30;;;;;;;12.11;100.00;98882.53;8421141;28;20400;-81
2022/09/13 07:13:49;;;;;;;17.50;11.88;;;;;;;12.23;100.00;98880.75;8414958;28;20412;-81
2022/09/13 07:17:50;;;;;;;17.00;12.20;;;;;;;12.38;100.00;98881.31;8429344;28;20032;-83
2022/09/13 07:21:51;;;;;;;17.27;11.95;;;;;;;12.50;100.00;98887.66;8429098;28;20048;-82
2022/09/13 07:25:54;;;;;;;17.92;11.63;;;;;;;12.65;100.00;98886.28;8415006;28;20044;-81
2022/09/13 07:29:56;;;;;;;14.93;10.45;;;;;;;12.80;100.00;98883.00;8429028;28;20047;-81
2022/09/13 07:33:59;;;;;;;22.08;10.38;;;;;;;12.94;100.00;98878.16;8428882;28;20079;-81
2022/09/13 07:38:00;;;;;;;14.18;10.15;;;;;;;13.10;100.00;98881.88;8427878;28;20040;-83
2022/09/13 07:42:01;;;;;;;15.07;10.27;;;;;;;13.28;100.00;98881.75;8428713;28;20174;-83
2022/09/13 07:46:07;;;;;;;15.95;10.25;;;;;;;13.47;100.00;98873.94;8414490;28;20467;-82
2022/09/13 07:50:08;;;;;;;15.10;10.25;;;;;;;13.64;100.00;98879.19;8421678;28;20132;-84
2022/09/13 07:54:13;;;;;;;12.32;9.93;;;;;;;13.79;99.67;98869.63;8421754;28;20055;-83
2022/09/13 07:58:14;;;;;;;17.33;8.88;;;;;;;13.92;99.07;98880.19;8428523;28;20055;-81
2022/09/13 08:02:17;;;;;;;12.52;8.85;;;;;;;14.13;98.05;98873.88;8428341;28;20100;-84
2022/09/13 08:06:18;;;;;;;18.20;8.85;;;;;;;14.40;97.30;98869.75;8428565;28;20056;-88
2022/09/13 08:10:19;;;;;;;14.82;8.40;;;;;;;14.54;96.16;98867.50;8428412;28;20098;-83
2022/09/13 08:14:22;;;;;;;11.60;8.60;;;;;;;14.62;95.74;98859.22;8429306;28;20075;-81
2022/09/13 08:18:24;;;;;;;16.33;8.60;;;;;;;14.82;95.34;98864.84;8409062;28;20513;-84
2022/09/13 08:22:24;;;;;;;12.50;8.40;;;;;;;14.91;94.16;98870.97;8432531;28;20091;-87
2022/09/13 08:26:28;;;;;;;14.73;7.80;;;;;;;14.88;94.07;98871.66;8434768;28;20065;-83
2022/09/13 08:30:32;;;;;;;17.58;8.75;;;;;;;14.93;94.07;98863.25;8434888;28;20134;-83
2022/09/13 08:34:33;;;;;;;13.27;7.95;;;;;;;15.12;93.56;98849.84;8429578;28;20040;-83
2022/09/13 08:38:33;;;;;;;14.85;7.63;;;;;;;15.34;92.87;98862.91;8410528;28;20134;-81
2022/09/13 08:43:01;;;;;;;15.85;6.95;;;;;;;15.56;92.25;98865.13;8419672;28;20131;-82
2022/09/13 08:47:40;;;;;;;15.18;7.65;;;;;;;15.71;91.54;98854.59;8423450;28;20045;-83
2022/09/13 08:51:46;;;;;;;12.38;7.63;;;;;;;15.83;90.84;98849.09;8406461;28;20051;-82
2022/09/13 08:56:07;;;;;;;12.27;7.57;;;;;;;15.93;90.04;98845.88;8418163;28;20052;-86
2022/09/13 09:00:31;;;;;;;10.02;6.97;;;;;;;16.14;89.69;98857.31;8404945;28;20062;-83
2022/09/13 09:04:33;;;;;;;11.60;7.13;;;;;;;16.33;88.78;98841.06;8423697;28;20048;-85
2022/09/13 09:08:41;;;;;;;17.52;7.65;;;;;;;16.51;87.96;98848.84;8426827;28;20052;-85
2022/09/13 09:12:45;;;;;;;8.02;5.57;;;;;;;16.72;87.57;98839.25;8397949;28;20813;-83
2022/09/13 09:16:53;;;;;;;15.50;6.13;;;;;;;17.08;85.84;98835.34;8414306;28;20095;-87
2022/09/13 09:20:56;;;;;;;10.80;6.37;;;;;;;17.36;85.50;98831.63;8382456;28;20056;-83
2022/09/13 09:25:01;;;;;;;12.07;6.10;;;;;;;17.64;84.26;98834.94;8432826;28;20123;-84
2022/09/13 09:29:24;;;;;;;9.23;5.63;;;;;;;17.69;82.76;98821.00;8432908;28;20078;-87
2022/09/13 09:33:33;;;;;;;9.40;5.07;;;;;;;17.65;82.23;98809.22;8407255;28;20431;-85
2022/09/13 09:37:36;;;;;;;13.02;5.53;;;;;;;17.64;82.79;98813.09;8418330;28;20094;-83
2022/09/13 09:41:37;;;;;;;10.15;5.40;;;;;;;17.60;82.15;98817.72;8413549;28;20044;-83
2022/09/13 09:45:40;;;;;;;10.95;6.50;;;;;;;17.46;82.50;98811.94;8422480;28;20040;-88
2022/09/13 09:54:12;;;;;;;12.32;5.90;;;;;;;17.29;82.32;98808.50;8328514;28;20110;-84
2022/09/13 09:58:17;;;;;;;8.63;5.20;;;;;;;17.19;82.55;98803.63;8281682;28;20064;-84
2022/09/13 10:02:20;;;;;;;6.80;5.00;;;;;;;17.14;82.96;98798.47;8328253;28;20061;-84
2022/09/13 10:06:24;;;;;;;6.78;4.95;;;;;;;17.06;83.79;98794.03;8311944;28;20069;-83
2022/09/13 10:10:28;;;;;;;7.47;5.40;;;;;;;16.97;84.61;98790.72;8313754;28;20085;-85
2022/09/13 10:14:37;;;;;;;12.00;5.22;;;;;;;16.88;85.12;98787.38;8314045;28;20137;-83
2022/09/13 10:18:38;;;;;;;6.50;5.10;;;;;;;16.82;85.61;98777.91;8313754;28;20140;-82
2022/09/13 10:22:43;;;;;;;6.50;4.95;;;;;;;16.78;86.20;98766.16;8327640;28;20057;-84
2022/09/13 10:26:45;;;;;;;8.00;5.55;;;;;;;16.82;86.28;98756.09;8327619;28;20072;-82
2022/09/13 10:30:51;;;;;;;7.50;5.07;;;;;;;16.88;86.35;98760.13;8354801;28;20062;-84
2022/09/13 10:34:54;;;;;;;9.68;5.32;;;;;;;17.00;86.55;98751.81;8430686;28;20055;-83
2022/09/13 10:38:55;;;;;;;9.25;5.47;;;;;;;17.19;86.61;98743.59;8428851;28;20393;-83
2022/09/13 10:42:57;;;;;;;10.82;6.15;;;;;;;17.45;86.36;98742.13;8353849;28;20075;-83
2022/09/13 10:47:04;;;;;;;12.65;5.72;;;;;;;17.62;86.10;98745.19;8430462;28;20047;-84
2022/09/13 10:51:27;;;;;;;7.20;5.43;;;;;;;17.78;85.27;98753.28;8430045;28;20048;-83
2022/09/13 10:55:56;;;;;;;9.55;5.65;;;;;;;17.92;84.89;98745.31;8430138;28;20052;-85
2022/09/13 10:59:57;;;;;;;8.60;5.53;;;;;;;18.27;84.02;98741.56;8415438;28;20097;-85
2022/09/13 11:04:55;;;;;;;8.05;5.93;;;;;;;18.68;83.16;98724.19;8425846;28;20122;-83
2022/09/13 11:08:59;;;;;;;8.52;5.30;;;;;;;19.35;80.95;98719.47;8277115;28;20050;-86
2022/09/13 11:13:06;;;;;;;8.68;5.18;;;;;;;19.80;78.86;98712.91;8293510;28;20053;-85
2022/09/13 11:17:28;;;;;;;7.75;5.10;;;;;;;20.10;77.76;98709.19;8277295;28;20077;-83
2022/09/13 11:21:47;;;;;;;11.05;5.13;;;;;;;20.18;77.46;98705.34;8279616;28;20042;-85
2022/09/13 11:25:54;;;;;;;6.43;4.40;;;;;;;20.38;75.29;98709.41;8293255;28;20093;-85
2022/09/13 11:30:15;;;;;;;11.52;4.18;;;;;;;20.23;74.16;98702.25;8293247;28;20411;-84
2022/09/13 11:34:39;;;;;;;8.73;4.53;;;;;;;20.10;73.62;98698.22;8182789;29;20626;-87
2022/09/13 11:38:43;;;;;;;8.98;4.07;;;;;;;19.94;73.89;98694.97;8241471;28;20050;-82
2022/09/13 11:42:52;;;;;;;5.63;4.10;;;;;;;19.75;74.08;98694.06;8324951;28;20183;-84
2022/09/13 11:47:03;;;;;;;6.65;4.78;;;;;;;19.67;74.26;98697.91;8358442;28;20098;-84
2022/09/13 11:51:24;;;;;;;7.43;4.38;;;;;;;19.66;74.56;98696.34;8315084;28;20051;-83
2022/09/13 11:55:41;;;;;;;9.30;4.82;;;;;;;19.58;74.61;98689.22;8340314;28;20049;-84
2022/09/13 12:00:24;;;;;;;9.57;4.28;;;;;;;19.77;74.16;98691.72;8345231;28;20061;-86
2022/09/13 12:04:53;;;;;;;6.70;4.30;;;;;;;19.72;73.91;98689.31;8233920;28;20050;-83
2022/09/13 12:09:03;;;;;;;5.10;4.10;;;;;;;19.56;74.14;98691.56;8236946;28;20042;-82
2022/09/13 12:13:08;;;;;;;8.93;4.28;;;;;;;19.43;74.45;98676.53;8233899;28;20062;-83
2022/09/13 12:17:19;;;;;;;9.65;4.68;;;;;;;19.30;74.91;98683.44;8236402;28;20409;-84
2022/09/13 12:21:24;;;;;;;7.30;4.68;;;;;;;19.07;75.04;98674.63;8250043;28;20082;-82
2022/09/13 12:25:38;;;;;;;7.38;4.53;;;;;;;18.99;75.80;98671.78;8250022;28;20066;-83
2022/09/13 12:29:47;;;;;;;7.45;4.10;;;;;;;18.95;76.24;98662.75;8240216;28;20052;-84
2022/09/13 12:33:49;;;;;;;6.88;4.28;;;;;;;18.96;75.17;98641.66;8237541;28;20059;-84
2022/09/13 12:38:09;;;;;;;6.03;3.78;;;;;;;18.90;75.03;98649.41;8350358;28;20458;-83
2022/09/13 12:42:51;;;;;;;4.40;3.63;;;;;;;18.87;75.95;98644.72;8434486;28;20481;-83
2022/09/13 12:47:23;;;;;;;6.22;4.05;;;;;;;18.82;76.02;98647.75;8352456;28;20102;-83
2022/09/13 12:52:04;;;;;;;4.82;4.15;;;;;;;18.77;76.95;98650.81;8346968;28;20053;-84
2022/09/13 12:56:20;;;;;;;5.95;4.13;;;;;;;18.76;77.42;98643.81;8363440;28;20060;-83
2022/09/13 13:00:30;;;;;;;8.32;4.63;;;;;;;18.78;77.71;98630.53;8346056;28;20080;-83
2022/09/13 13:04:33;;;;;;;5.90;3.90;;;;;;;18.79;78.33;98640.31;8362685;28;20045;-83
2022/09/13 13:08:34;;;;;;;9.10;4.50;;;;;;;18.73;78.62;98639.06;8362657;28;20060;-84
2022/09/13 13:12:38;;;;;;;6.60;4.60;;;;;;;18.74;78.74;98635.19;8362555;28;20048;-85
2022/09/13 13:16:47;;;;;;;6.65;4.40;;;;;;;18.72;79.11;98621.06;8371717;28;20178;-84
2022/09/13 13:20:52;;;;;;;6.03;4.32;;;;;;;18.69;78.66;98627.31;8345556;28;20064;-83
2022/09/13 13:24:54;;;;;;;6.38;4.32;;;;;;;18.68;78.75;98625.72;8362724;28;20072;-84
2022/09/13 13:29:02;;;;;;;8.80;4.35;;;;;;;18.68;79.44;98609.31;8361829;28;20148;-84
2022/09/13 13:33:05;;;;;;;10.43;4.18;;;;;;;18.70;79.14;98612.47;8349546;28;20045;-83
2022/09/13 13:37:09;;;;;;;7.70;4.55;;;;;;;18.74;79.90;98602.34;8333726;28;20053;-83
2022/09/13 13:41:37;;;;;;;9.77;5.68;;;;;;;18.65;79.97;98599.13;8359751;28;20057;-83
2022/09/13 13:45:56;;;;;;;9.68;4.70;;;;;;;18.64;79.76;98600.28;8335660;28;20132;-85
2022/09/13 13:50:17;;;;;;;11.48;4.80;;;;;;;18.67;79.69;98596.78;8316823;28;20420;-85
2022/09/13 13:54:30;;;;;;;8.93;4.60;;;;;;;18.67;79.53;98580.38;8430742;28;20044;-84
2022/09/13 13:58:41;;;;;;;5.22;4.50;;;;;;;18.69;79.80;98571.81;8405635;28;20048;-83
2022/09/13 14:02:48;;;;;;;9.77;4.72;;;;;;;18.74;79.57;98580.47;8427462;28;20522;-83
2022/09/13 14:07:04;;;;;;;9.23;5.60;;;;;;;18.86;79.61;98572.00;8431282;28;20044;-83
2022/09/13 14:11:43;;;;;;;7.35;5.38;;;;;;;18.99;79.11;98570.53;8427124;28;20054;-84
2022/09/13 14:15:51;;;;;;;6.40;4.65;;;;;;;19.02;78.73;98568.22;8420667;28;20097;-84
2022/09/13 14:19:54;;;;;;;;;;;;;;;18.94;78.41;98568.16;8430383;28;20036;-84
2022/09/13 14:24:17;;;;;;;8.85;5.32;;;;;;;18.94;78.74;98562.69;8430959;28;20347;-83
2022/09/13 14:28:20;;;;;;;6.63;4.88;;;;;;;18.89;78.35;98565.75;8431055;28;20058;-83
2022/09/13 14:32:23;;;;;;;8.10;5.18;;;;;;;18.88;78.53;98553.25;8429301;28;20606;-84
2022/09/13 14:36:26;;;;;;;8.05;5.20;;;;;;;18.92;78.55;98553.28;8415058;28;20039;-85
2022/09/13 14:40:27;;;;;;;8.20;4.90;;;;;;;18.92;78.94;98548.63;8429244;28;20040;-82
2022/09/13 14:44:31;;;;;;;7.97;5.30;;;;;;;18.90;79.17;98539.97;8408837;28;21381;-85
2022/09/13 14:48:40;;;;;;;7.30;5.68;;;;;;;18.89;78.47;98554.81;8404951;28;20044;-83
2022/09/13 14:52:47;;;;;;;10.90;4.70;;;;;;;18.87;78.23;98535.28;8414638;28;20048;-84
2022/09/13 14:56:55;;;;;;;9.68;4.88;;;;;;;18.92;78.12;98536.88;8408337;28;20584;-83
2022/09/13 15:00:59;;;;;;;8.07;5.18;;;;;;;18.97;78.69;98540.06;8394070;28;20048;-83
2022/09/13 15:05:05;;;;;;;9.40;5.60;;;;;;;18.98;78.29;98536.13;8415508;28;20037;-84
2022/09/13 15:09:09;;;;;;;8.15;5.13;;;;;;;19.05;78.30;98529.16;8382049;28;20056;-84
2022/09/13 15:13:10;;;;;;;7.40;5.22;;;;;;;19.05;78.46;98518.22;8411925;28;20052;-83
2022/09/13 15:17:13;;;;;;;10.82;5.38;;;;;;;18.97;78.40;98523.63;8393485;28;20140;-84
2022/09/13 15:21:17;;;;;;;9.30;5.35;;;;;;;18.91;78.78;98519.66;8410377;28;20055;-85
2022/09/13 15:25:28;;;;;;;6.43;4.88;;;;;;;18.85;79.31;98526.66;8396933;28;20049;-83
2022/09/13 15:29:33;;;;;;;9.43;4.97;;;;;;;18.81;79.43;98514.09;8400252;28;20059;-82
2022/09/13 15:33:35;;;;;;;7.10;4.97;;;;;;;18.78;79.48;98515.63;8422083;28;20067;-83
2022/09/13 15:37:36;;;;;;;8.63;5.03;;;;;;;18.78;79.94;98525.78;8399571;28;20040;-84
2022/09/13 15:41:39;;;;;;;6.22;5.32;;;;;;;18.76;80.13;98523.44;8399743;28;20097;-84
2022/09/13 15:45:40;;;;;;;9.25;5.22;;;;;;;18.71;80.26;98515.59;8408740;28;20052;-84
2022/09/13 15:49:49;;;;;;;8.45;5.38;;;;;;;18.63;80.53;98518.59;8401296;28;20044;-84
2022/09/13 15:53:51;;;;;;;10.65;5.45;;;;;;;18.57;80.54;98515.44;8404224;28;20045;-83
2022/09/13 15:57:52;;;;;;;8.52;5.57;;;;;;;18.53;80.93;98514.59;8397765;28;20037;-83
2022/09/13 16:01:54;;;;;;;10.10;5.20;;;;;;;18.49;80.96;98513.75;8373878;28;20047;-84
2022/09/13 16:05:55;;;;;;;11.95;5.43;;;;;;;18.44;81.04;98505.91;8406999;28;20043;-83
2022/09/13 16:09:56;;;;;;;6.60;4.95;;;;;;;18.40;81.50;98502.34;8404880;28;20048;-84
2022/09/13 16:13:57;;;;;;;9.70;5.45;;;;;;;18.34;81.68;98495.66;8397861;28;20052;-85
2022/09/13 16:17:58;;;;;;;12.90;5.55;;;;;;;18.29;82.21;98498.72;8428601;28;20055;-84
2022/09/13 16:21:59;;;;;;;18.75;6.00;;;;;;;18.24;82.44;98485.38;8378540;28;20048;-83
2022/09/13 16:26:00;;;;;;;9.15;5.40;;;;;;;18.18;82.95;98484.16;8414026;28;20043;-84
2022/09/13 16:30:02;;;;;;;10.57;5.63;;;;;;;18.14;83.14;98482.16;8403490;28;20047;-83
2022/09/13 16:34:03;;;;;;;8.48;5.63;;;;;;;18.11;83.40;98482.09;8423243;28;20059;-84
2022/09/13 16:38:04;;;;;;;8.52;5.53;;;;;;;18.06;83.79;98485.97;8432204;28;20070;-83
2022/09/13 16:42:05;;;;;;;8.63;6.15;;;;;;;18.02;83.95;98482.41;8427329;28;20448;-84
2022/09/13 16:46:08;;;;;;;9.23;5.55;;;;;;;18.01;83.89;98489.03;8390039;28;20098;-83
2022/09/13 16:50:09;;;;;;;9.57;6.47;;;;;;;17.99;83.63;98479.63;8318516;28;20057;-83
2022/09/13 16:54:10;;;;;;;11.25;5.90;;;;;;;17.96;83.66;98481.16;8331937;28;20045;-84
2022/09/13 16:58:11;;;;;;;9.88;5.65;;;;;;;17.95;83.45;98490.50;8329909;28;20140;-82
2022/09/13 17:02:13;;;;;;;10.23;5.60;;;;;;;17.91;83.93;98486.97;8317597;28;20140;-83
2022/09/13 17:06:16;;;;;;;11.63;5.65;;;;;;;17.89;83.86;98492.00;8362794;28;20049;-84
2022/09/13 17:10:17;;;;;;;6.65;5.30;;;;;;;17.87;84.26;98488.09;8345771;28;20107;-83
2022/09/13 17:14:20;;;;;;;7.10;5.63;;;;;;;17.85;83.78;98496.63;8351559;28;20131;-84
2022/09/13 17:18:21;;;;;;;9.85;5.68;;;;;;;17.87;83.93;98499.75;8306515;28;20038;-83
2022/09/13 17:22:23;;;;;;;11.45;6.15;;;;;;;17.84;84.07;98489.59;8348958;28;20052;-84
2022/09/13 17:26:25;;;;;;;9.07;5.70;;;;;;;17.83;83.81;98498.94;8375412;28;20056;-84
2022/09/13 17:30:26;;;;;;;9.90;5.93;;;;;;;17.81;83.88;98495.03;8427659;28;20474;-84
2022/09/13 17:34:27;;;;;;;9.30;5.45;;;;;;;17.79;83.74;98478.22;8408409;28;20047;-84
2022/09/13 17:38:28;;;;;;;7.78;6.00;;;;;;;17.75;83.71;98475.44;8413406;28;20041;-83
2022/09/13 17:42:29;;;;;;;10.80;6.22;;;;;;;17.67;83.90;98479.22;8393073;28;20056;-83
2022/09/13 17:46:30;;;;;;;11.23;6.07;;;;;;;17.63;84.17;98467.47;8406603;28;20498;-83
2022/09/13 17:50:32;;;;;;;8.65;5.60;;;;;;;17.58;84.29;98475.97;8425516;28;20052;-84
2022/09/13 17:54:32;;;;;;;12.20;6.13;;;;;;;17.53;84.52;98473.56;8400775;28;20049;-84
2022/09/13 17:58:34;;;;;;;8.35;6.05;;;;;;;17.50;84.44;98474.31;8409010;28;20055;-84
2022/09/13 18:02:35;;;;;;;7.93;5.75;;;;;;;17.45;84.58;98477.34;8405295;28;20040;-83
2022/09/13 18:06:39;;;;;;;10.65;5.88;;;;;;;17.42;84.55;98475.34;8419797;28;20473;-83
2022/09/13 18:10:40;;;;;;;8.07;5.35;;;;;;;17.39;84.81;98484.28;8430585;28;20059;-83
2022/09/13 18:14:41;;;;;;;9.75;5.95;;;;;;;17.36;84.72;98474.09;8421891;28;20052;-83
2022/09/13 18:18:44;;;;;;;8.05;5.80;;;;;;;17.34;84.74;98485.38;8406642;28;20421;-84
2022/09/13 18:22:46;;;;;;;10.00;6.18;;;;;;;17.28;84.79;98479.47;8419722;28;20102;-82
2022/09/13 18:26:48;;;;;;;11.63;6.05;;;;;;;17.30;85.01;98482.59;8403307;28;20057;-82
2022/09/13 18:30:57;;;;;;;7.90;6.35;;;;;;;17.30;85.09;98482.59;8402079;28;20435;-84
2022/09/13 18:34:59;;;;;;;10.30;6.22;;;;;;;17.30;85.13;98477.13;8415950;28;20393;-84
2022/09/13 18:39:03;;;;;;;10.27;6.35;;;;;;;17.31;85.11;98484.16;8415935;28;20059;-87
2022/09/13 18:43:03;;;;;;;8.25;6.40;;;;;;;17.31;85.34;98484.16;8415663;28;20039;-86
2022/09/13 18:47:07;;;;;;;11.32;6.20;;;;;;;17.25;85.53;98479.38;8401294;28;20050;-84
2022/09/13 18:51:12;;;;;;;22.45;6.55;;;;;;;17.19;85.88;98481.66;8411571;28;20047;-84
2022/09/13 18:55:14;;;;;;;8.13;6.10;;;;;;;17.14;86.12;98490.16;8410436;28;20505;-84
2022/09/13 18:59:15;;;;;;;12.13;7.03;;;;;;;17.14;86.29;98484.69;8396287;28;20052;-83
2022/09/13 19:03:16;;;;;;;8.13;6.15;;;;;;;17.14;86.25;98479.22;8410622;28;20040;-82
2022/09/13 19:07:17;;;;;;;18.77;6.72;;;;;;;17.15;86.65;98480.81;8407524;28;20067;-83
2022/09/13 19:11:20;;;;;;;12.23;6.22;;;;;;;17.14;86.49;98472.97;8396099;28;20516;-85
2022/09/13 19:15:22;;;;;;;10.52;6.75;;;;;;;17.11;86.55;98477.25;8397592;28;20398;-83